sensor_id;sensor_type;location;lat;lon;timestamp;P1;durP1;ratioP1;P2;durP2;ratioP2
43042;SDS011;28667;50.758;6.096;2023-03-11T00:02:14;3.65;;;0.80;;
43042;SDS011;28667;50.758;6.096;2023-03-11T00:04:40;7.95;;;0.73;;
43042;SDS011;28667;50.758;6.096;2023-03-11T00:07:07;0.95;;;0.40;;
43042;SDS011;28667;50.758;6.096;2023-03-11T00:09:34;0.55;;;0.38;;
43042;SDS011;28667;50.758;6.096;2023-03-11T00:12:00;0.73;;;0.32;;
43042;SDS011;28667;50.758;6.096;2023-03-11T00:14:26;1.75;;;0.40;;
43042;SDS011;28667;50.758;6.096;2023-03-11T00:16:52;3.30;;;0.88;;
43042;SDS011;28667;50.758;6.096;2023-03-11T00:19:18;4.85;;;0.40;;
43042;SDS011;28667;50.758;6.096;2023-03-11T00:21:44;2.50;;;0.60;;
43042;SDS011;28667;50.758;6.096;2023-03-11T00:24:09;3.45;;;0.43;;
43042;SDS011;28667;50.758;6.096;2023-03-11T00:26:35;0.52;;;0.30;;
43042;SDS011;28667;50.758;6.096;2023-03-11T00:29:01;0.63;;;0.32;;
43042;SDS011;28667;50.758;6.096;2023-03-11T00:31:29;2.25;;;0.68;;
43042;SDS011;28667;50.758;6.096;2023-03-11T00:33:55;5.30;;;0.82;;
43042;SDS011;28667;50.758;6.096;2023-03-11T00:36:27;0.47;;;0.35;;
43042;SDS011;28667;50.758;6.096;2023-03-11T00:38:56;1.02;;;0.93;;
43042;SDS011;28667;50.758;6.096;2023-03-11T00:41:22;3.00;;;0.50;;
43042;SDS011;28667;50.758;6.096;2023-03-11T00:43:48;3.38;;;0.40;;
43042;SDS011;28667;50.758;6.096;2023-03-11T00:46:14;2.15;;;0.50;;
43042;SDS011;28667;50.758;6.096;2023-03-11T00:48:39;1.60;;;0.52;;
43042;SDS011;28667;50.758;6.096;2023-03-11T00:51:06;1.15;;;0.30;;
43042;SDS011;28667;50.758;6.096;2023-03-11T00:53:32;7.55;;;0.40;;
43042;SDS011;28667;50.758;6.096;2023-03-11T00:56:04;0.68;;;0.52;;
43042;SDS011;28667;50.758;6.096;2023-03-11T00:58:35;0.98;;;0.38;;
43042;SDS011;28667;50.758;6.096;2023-03-11T01:01:08;0.88;;;0.50;;
43042;SDS011;28667;50.758;6.096;2023-03-11T01:03:34;2.55;;;0.47;;
43042;SDS011;28667;50.758;6.096;2023-03-11T01:06:00;5.47;;;0.65;;
43042;SDS011;28667;50.758;6.096;2023-03-11T01:08:25;5.45;;;0.80;;
43042;SDS011;28667;50.758;6.096;2023-03-11T01:10:52;2.55;;;0.75;;
43042;SDS011;28667;50.758;6.096;2023-03-11T01:13:19;1.42;;;0.38;;
43042;SDS011;28667;50.758;6.096;2023-03-11T01:15:47;5.03;;;0.70;;
43042;SDS011;28667;50.758;6.096;2023-03-11T01:18:13;1.85;;;0.82;;
43042;SDS011;28667;50.758;6.096;2023-03-11T01:20:40;2.85;;;0.60;;
43042;SDS011;28667;50.758;6.096;2023-03-11T01:23:06;1.73;;;0.75;;
43042;SDS011;28667;50.758;6.096;2023-03-11T01:25:33;2.53;;;0.52;;
43042;SDS011;28667;50.758;6.096;2023-03-11T01:27:59;2.53;;;0.60;;
43042;SDS011;28667;50.758;6.096;2023-03-11T01:30:25;1.02;;;0.50;;
43042;SDS011;28667;50.758;6.096;2023-03-11T01:32:52;1.42;;;0.65;;
43042;SDS011;28667;50.758;6.096;2023-03-11T01:35:20;5.18;;;0.90;;
43042;SDS011;28667;50.758;6.096;2023-03-11T01:37:47;1.10;;;0.75;;
43042;SDS011;28667;50.758;6.096;2023-03-11T01:40:16;5.82;;;0.82;;
43042;SDS011;28667;50.758;6.096;2023-03-11T01:46:13;0.85;;;0.63;;
43042;SDS011;28667;50.758;6.096;2023-03-11T01:48:50;1.30;;;0.88;;
43042;SDS011;28667;50.758;6.096;2023-03-11T01:51:19;2.10;;;1.00;;
43042;SDS011;28667;50.758;6.096;2023-03-11T01:53:53;1.08;;;0.82;;
43042;SDS011;28667;50.758;6.096;2023-03-11T01:56:20;2.42;;;0.38;;
43042;SDS011;28667;50.758;6.096;2023-03-11T01:58:48;0.47;;;0.47;;
43042;SDS011;28667;50.758;6.096;2023-03-11T02:01:18;0.52;;;0.50;;
43042;SDS011;28667;50.758;6.096;2023-03-11T02:03:45;1.65;;;0.73;;
43042;SDS011;28667;50.758;6.096;2023-03-11T02:06:13;1.00;;;0.47;;
43042;SDS011;28667;50.758;6.096;2023-03-11T02:08:45;5.68;;;0.88;;
43042;SDS011;28667;50.758;6.096;2023-03-11T02:11:16;1.33;;;0.80;;
43042;SDS011;28667;50.758;6.096;2023-03-11T02:13:46;7.00;;;0.70;;
43042;SDS011;28667;50.758;6.096;2023-03-11T02:16:13;1.08;;;0.77;;
43042;SDS011;28667;50.758;6.096;2023-03-11T02:18:40;2.30;;;0.75;;
43042;SDS011;28667;50.758;6.096;2023-03-11T02:21:24;2.42;;;0.57;;
43042;SDS011;28667;50.758;6.096;2023-03-11T02:23:55;1.17;;;0.70;;
43042;SDS011;28667;50.758;6.096;2023-03-11T02:29:29;0.60;;;0.60;;
43042;SDS011;28667;50.758;6.096;2023-03-11T02:31:58;10.77;;;1.15;;
43042;SDS011;28667;50.758;6.096;2023-03-11T02:34:30;7.30;;;0.93;;
43042;SDS011;28667;50.758;6.096;2023-03-11T02:36:59;2.15;;;0.70;;
43042;SDS011;28667;50.758;6.096;2023-03-11T02:39:29;6.00;;;0.85;;
43042;SDS011;28667;50.758;6.096;2023-03-11T02:41:57;0.70;;;0.40;;
43042;SDS011;28667;50.758;6.096;2023-03-11T02:44:24;0.85;;;0.77;;
43042;SDS011;28667;50.758;6.096;2023-03-11T02:46:50;0.55;;;0.43;;
43042;SDS011;28667;50.758;6.096;2023-03-11T02:49:17;6.82;;;1.02;;
43042;SDS011;28667;50.758;6.096;2023-03-11T02:51:44;0.68;;;0.55;;
43042;SDS011;28667;50.758;6.096;2023-03-11T02:54:10;8.20;;;0.85;;
43042;SDS011;28667;50.758;6.096;2023-03-11T02:56:36;0.70;;;0.45;;
43042;SDS011;28667;50.758;6.096;2023-03-11T02:59:02;10.82;;;1.13;;
43042;SDS011;28667;50.758;6.096;2023-03-11T03:01:28;2.17;;;0.98;;
43042;SDS011;28667;50.758;6.096;2023-03-11T03:03:54;1.25;;;0.50;;
43042;SDS011;28667;50.758;6.096;2023-03-11T03:06:20;3.80;;;1.05;;
43042;SDS011;28667;50.758;6.096;2023-03-11T03:08:48;5.55;;;0.98;;
43042;SDS011;28667;50.758;6.096;2023-03-11T03:11:14;2.90;;;0.80;;
43042;SDS011;28667;50.758;6.096;2023-03-11T03:13:40;1.95;;;1.15;;
43042;SDS011;28667;50.758;6.096;2023-03-11T03:16:06;8.07;;;1.17;;
43042;SDS011;28667;50.758;6.096;2023-03-11T03:18:32;1.85;;;0.90;;
43042;SDS011;28667;50.758;6.096;2023-03-11T03:20:58;1.20;;;0.57;;
43042;SDS011;28667;50.758;6.096;2023-03-11T03:23:24;2.72;;;0.80;;
43042;SDS011;28667;50.758;6.096;2023-03-11T03:25:50;0.80;;;0.80;;
43042;SDS011;28667;50.758;6.096;2023-03-11T03:28:16;5.40;;;1.02;;
43042;SDS011;28667;50.758;6.096;2023-03-11T03:30:44;1.50;;;0.75;;
43042;SDS011;28667;50.758;6.096;2023-03-11T03:33:12;7.63;;;0.80;;
43042;SDS011;28667;50.758;6.096;2023-03-11T03:35:42;1.17;;;0.63;;
43042;SDS011;28667;50.758;6.096;2023-03-11T03:38:21;1.45;;;0.52;;
43042;SDS011;28667;50.758;6.096;2023-03-11T03:40:49;4.35;;;0.80;;
43042;SDS011;28667;50.758;6.096;2023-03-11T03:43:18;3.28;;;0.75;;
43042;SDS011;28667;50.758;6.096;2023-03-11T03:45:45;0.85;;;0.55;;
43042;SDS011;28667;50.758;6.096;2023-03-11T03:48:19;2.42;;;1.08;;
43042;SDS011;28667;50.758;6.096;2023-03-11T03:50:44;1.23;;;0.38;;
43042;SDS011;28667;50.758;6.096;2023-03-11T03:53:13;2.17;;;0.90;;
43042;SDS011;28667;50.758;6.096;2023-03-11T03:55:40;2.22;;;0.90;;
43042;SDS011;28667;50.758;6.096;2023-03-11T03:58:06;3.10;;;0.95;;
43042;SDS011;28667;50.758;6.096;2023-03-11T04:00:34;0.65;;;0.63;;
43042;SDS011;28667;50.758;6.096;2023-03-11T04:03:01;4.47;;;0.68;;
43042;SDS011;28667;50.758;6.096;2023-03-11T04:08:02;1.67;;;0.88;;
43042;SDS011;28667;50.758;6.096;2023-03-11T04:10:28;3.85;;;0.70;;
43042;SDS011;28667;50.758;6.096;2023-03-11T04:12:53;1.10;;;0.70;;
43042;SDS011;28667;50.758;6.096;2023-03-11T04:15:20;6.93;;;0.80;;
43042;SDS011;28667;50.758;6.096;2023-03-11T04:17:46;4.32;;;1.00;;
43042;SDS011;28667;50.758;6.096;2023-03-11T04:20:12;2.88;;;1.20;;
43042;SDS011;28667;50.758;6.096;2023-03-11T04:22:41;3.17;;;1.08;;
43042;SDS011;28667;50.758;6.096;2023-03-11T04:25:07;2.17;;;1.30;;
43042;SDS011;28667;50.758;6.096;2023-03-11T04:27:33;5.00;;;1.02;;
43042;SDS011;28667;50.758;6.096;2023-03-11T04:30:01;4.63;;;1.25;;
43042;SDS011;28667;50.758;6.096;2023-03-11T04:32:28;0.50;;;0.47;;
43042;SDS011;28667;50.758;6.096;2023-03-11T04:34:54;2.67;;;1.08;;
43042;SDS011;28667;50.758;6.096;2023-03-11T04:37:20;1.85;;;1.10;;
43042;SDS011;28667;50.758;6.096;2023-03-11T04:39:46;3.22;;;0.95;;
43042;SDS011;28667;50.758;6.096;2023-03-11T04:42:12;0.90;;;0.90;;
43042;SDS011;28667;50.758;6.096;2023-03-11T04:44:40;3.28;;;1.65;;
43042;SDS011;28667;50.758;6.096;2023-03-11T04:47:06;1.92;;;1.02;;
43042;SDS011;28667;50.758;6.096;2023-03-11T04:49:32;2.22;;;1.17;;
43042;SDS011;28667;50.758;6.096;2023-03-11T04:51:58;1.48;;;1.02;;
43042;SDS011;28667;50.758;6.096;2023-03-11T04:54:24;1.63;;;0.95;;
43042;SDS011;28667;50.758;6.096;2023-03-11T04:56:50;0.80;;;0.77;;
43042;SDS011;28667;50.758;6.096;2023-03-11T04:59:16;0.70;;;0.60;;
43042;SDS011;28667;50.758;6.096;2023-03-11T05:01:43;1.65;;;1.15;;
43042;SDS011;28667;50.758;6.096;2023-03-11T05:04:09;3.55;;;0.82;;
43042;SDS011;28667;50.758;6.096;2023-03-11T05:06:37;1.92;;;1.05;;
43042;SDS011;28667;50.758;6.096;2023-03-11T05:09:03;1.95;;;1.10;;
43042;SDS011;28667;50.758;6.096;2023-03-11T05:11:32;1.88;;;1.25;;
43042;SDS011;28667;50.758;6.096;2023-03-11T05:13:58;1.02;;;0.95;;
43042;SDS011;28667;50.758;6.096;2023-03-11T05:16:24;1.10;;;1.00;;
43042;SDS011;28667;50.758;6.096;2023-03-11T05:18:50;4.63;;;1.10;;
43042;SDS011;28667;50.758;6.096;2023-03-11T05:21:16;1.70;;;0.95;;
43042;SDS011;28667;50.758;6.096;2023-03-11T05:23:42;1.35;;;0.88;;
43042;SDS011;28667;50.758;6.096;2023-03-11T05:26:09;2.78;;;1.48;;
43042;SDS011;28667;50.758;6.096;2023-03-11T05:28:39;6.07;;;0.93;;
43042;SDS011;28667;50.758;6.096;2023-03-11T05:31:06;2.42;;;0.98;;
43042;SDS011;28667;50.758;6.096;2023-03-11T05:33:36;0.70;;;0.70;;
43042;SDS011;28667;50.758;6.096;2023-03-11T05:36:05;1.48;;;1.08;;
43042;SDS011;28667;50.758;6.096;2023-03-11T05:38:34;4.47;;;1.42;;
43042;SDS011;28667;50.758;6.096;2023-03-11T05:41:01;1.13;;;1.00;;
43042;SDS011;28667;50.758;6.096;2023-03-11T05:43:26;1.77;;;1.05;;
43042;SDS011;28667;50.758;6.096;2023-03-11T05:45:53;2.95;;;1.20;;
43042;SDS011;28667;50.758;6.096;2023-03-11T05:48:19;0.88;;;0.80;;
43042;SDS011;28667;50.758;6.096;2023-03-11T05:50:45;1.98;;;1.13;;
43042;SDS011;28667;50.758;6.096;2023-03-11T05:53:11;4.13;;;1.38;;
43042;SDS011;28667;50.758;6.096;2023-03-11T05:55:37;3.88;;;1.10;;
43042;SDS011;28667;50.758;6.096;2023-03-11T05:58:03;5.80;;;1.40;;
43042;SDS011;28667;50.758;6.096;2023-03-11T06:00:29;1.08;;;0.70;;
43042;SDS011;28667;50.758;6.096;2023-03-11T06:02:58;3.33;;;1.08;;
43042;SDS011;28667;50.758;6.096;2023-03-11T06:05:24;1.67;;;1.35;;
43042;SDS011;28667;50.758;6.096;2023-03-11T06:07:51;1.38;;;0.55;;
43042;SDS011;28667;50.758;6.096;2023-03-11T06:10:20;2.33;;;1.23;;
43042;SDS011;28667;50.758;6.096;2023-03-11T06:12:45;1.58;;;0.80;;
43042;SDS011;28667;50.758;6.096;2023-03-11T06:15:40;0.95;;;0.77;;
43042;SDS011;28667;50.758;6.096;2023-03-11T06:18:07;0.80;;;0.73;;
43042;SDS011;28667;50.758;6.096;2023-03-11T06:20:34;2.90;;;0.98;;
43042;SDS011;28667;50.758;6.096;2023-03-11T06:23:01;3.15;;;0.98;;
43042;SDS011;28667;50.758;6.096;2023-03-11T06:25:27;4.50;;;1.08;;
43042;SDS011;28667;50.758;6.096;2023-03-11T06:27:53;4.28;;;1.20;;
43042;SDS011;28667;50.758;6.096;2023-03-11T06:30:20;3.85;;;0.90;;
43042;SDS011;28667;50.758;6.096;2023-03-11T06:32:55;2.03;;;0.77;;
43042;SDS011;28667;50.758;6.096;2023-03-11T06:35:21;2.40;;;1.23;;
43042;SDS011;28667;50.758;6.096;2023-03-11T06:37:47;6.53;;;1.73;;
43042;SDS011;28667;50.758;6.096;2023-03-11T06:40:13;0.82;;;0.80;;
43042;SDS011;28667;50.758;6.096;2023-03-11T06:42:39;7.97;;;1.70;;
43042;SDS011;28667;50.758;6.096;2023-03-11T06:45:07;4.13;;;1.08;;
43042;SDS011;28667;50.758;6.096;2023-03-11T06:47:34;4.00;;;1.42;;
43042;SDS011;28667;50.758;6.096;2023-03-11T06:49:59;2.67;;;1.25;;
43042;SDS011;28667;50.758;6.096;2023-03-11T06:52:30;2.63;;;1.50;;
43042;SDS011;28667;50.758;6.096;2023-03-11T06:54:56;3.28;;;1.45;;
43042;SDS011;28667;50.758;6.096;2023-03-11T06:57:23;2.13;;;1.35;;
43042;SDS011;28667;50.758;6.096;2023-03-11T06:59:51;2.03;;;1.23;;
43042;SDS011;28667;50.758;6.096;2023-03-11T07:02:17;3.25;;;1.25;;
43042;SDS011;28667;50.758;6.096;2023-03-11T07:04:43;3.00;;;1.80;;
43042;SDS011;28667;50.758;6.096;2023-03-11T07:07:12;1.50;;;1.10;;
43042;SDS011;28667;50.758;6.096;2023-03-11T07:09:38;3.60;;;1.02;;
43042;SDS011;28667;50.758;6.096;2023-03-11T07:12:06;8.93;;;1.73;;
43042;SDS011;28667;50.758;6.096;2023-03-11T07:14:35;7.57;;;1.42;;
43042;SDS011;28667;50.758;6.096;2023-03-11T07:17:00;2.17;;;1.48;;
43042;SDS011;28667;50.758;6.096;2023-03-11T07:19:32;2.42;;;1.80;;
43042;SDS011;28667;50.758;6.096;2023-03-11T07:21:57;7.93;;;2.33;;
43042;SDS011;28667;50.758;6.096;2023-03-11T07:24:23;5.70;;;1.50;;
43042;SDS011;28667;50.758;6.096;2023-03-11T07:26:49;7.45;;;2.28;;
43042;SDS011;28667;50.758;6.096;2023-03-11T07:29:15;3.08;;;1.23;;
43042;SDS011;28667;50.758;6.096;2023-03-11T07:31:40;2.50;;;1.10;;
43042;SDS011;28667;50.758;6.096;2023-03-11T07:34:06;5.88;;;1.50;;
43042;SDS011;28667;50.758;6.096;2023-03-11T07:36:35;4.97;;;1.55;;
43042;SDS011;28667;50.758;6.096;2023-03-11T07:39:03;1.92;;;1.10;;
43042;SDS011;28667;50.758;6.096;2023-03-11T07:41:30;9.82;;;1.70;;
43042;SDS011;28667;50.758;6.096;2023-03-11T07:43:58;3.15;;;2.28;;
43042;SDS011;28667;50.758;6.096;2023-03-11T07:46:24;2.42;;;1.40;;
43042;SDS011;28667;50.758;6.096;2023-03-11T07:48:51;2.22;;;1.38;;
43042;SDS011;28667;50.758;6.096;2023-03-11T07:53:45;4.97;;;1.88;;
43042;SDS011;28667;50.758;6.096;2023-03-11T07:56:12;6.20;;;1.70;;
43042;SDS011;28667;50.758;6.096;2023-03-11T07:58:40;3.90;;;2.08;;
43042;SDS011;28667;50.758;6.096;2023-03-11T08:01:08;3.35;;;2.28;;
43042;SDS011;28667;50.758;6.096;2023-03-11T08:03:36;3.20;;;1.83;;
43042;SDS011;28667;50.758;6.096;2023-03-11T08:06:02;3.75;;;1.20;;
43042;SDS011;28667;50.758;6.096;2023-03-11T08:08:36;2.53;;;1.48;;
43042;SDS011;28667;50.758;6.096;2023-03-11T08:11:02;3.92;;;1.67;;
43042;SDS011;28667;50.758;6.096;2023-03-11T08:13:28;4.70;;;1.25;;
43042;SDS011;28667;50.758;6.096;2023-03-11T08:15:54;2.17;;;1.40;;
43042;SDS011;28667;50.758;6.096;2023-03-11T08:18:20;1.88;;;1.35;;
43042;SDS011;28667;50.758;6.096;2023-03-11T08:20:45;5.95;;;1.17;;
43042;SDS011;28667;50.758;6.096;2023-03-11T08:23:11;2.15;;;1.20;;
43042;SDS011;28667;50.758;6.096;2023-03-11T08:25:38;7.25;;;1.80;;
43042;SDS011;28667;50.758;6.096;2023-03-11T08:28:04;5.63;;;1.08;;
43042;SDS011;28667;50.758;6.096;2023-03-11T08:30:32;1.30;;;0.73;;
43042;SDS011;28667;50.758;6.096;2023-03-11T08:32:58;1.38;;;0.55;;
43042;SDS011;28667;50.758;6.096;2023-03-11T08:35:23;3.55;;;0.65;;
43042;SDS011;28667;50.758;6.096;2023-03-11T08:37:50;1.65;;;0.95;;
43042;SDS011;28667;50.758;6.096;2023-03-11T08:40:16;0.60;;;0.60;;
43042;SDS011;28667;50.758;6.096;2023-03-11T08:42:42;4.07;;;1.05;;
43042;SDS011;28667;50.758;6.096;2023-03-11T08:45:08;0.90;;;0.77;;
43042;SDS011;28667;50.758;6.096;2023-03-11T08:47:35;0.77;;;0.77;;
43042;SDS011;28667;50.758;6.096;2023-03-11T08:50:02;6.90;;;0.85;;
43042;SDS011;28667;50.758;6.096;2023-03-11T08:52:30;5.35;;;1.13;;
43042;SDS011;28667;50.758;6.096;2023-03-11T08:54:56;1.35;;;0.95;;
43042;SDS011;28667;50.758;6.096;2023-03-11T08:57:22;0.95;;;0.40;;
43042;SDS011;28667;50.758;6.096;2023-03-11T08:59:47;1.65;;;0.80;;
43042;SDS011;28667;50.758;6.096;2023-03-11T09:02:13;1.65;;;0.25;;
43042;SDS011;28667;50.758;6.096;2023-03-11T09:04:39;7.22;;;0.75;;
43042;SDS011;28667;50.758;6.096;2023-03-11T09:07:05;1.88;;;0.75;;
43042;SDS011;28667;50.758;6.096;2023-03-11T09:09:30;0.45;;;0.32;;
43042;SDS011;28667;50.758;6.096;2023-03-11T09:11:56;0.63;;;0.40;;
43042;SDS011;28667;50.758;6.096;2023-03-11T09:14:22;0.10;;;0.10;;
43042;SDS011;28667;50.758;6.096;2023-03-11T09:16:48;0.10;;;0.10;;
43042;SDS011;28667;50.758;6.096;2023-03-11T09:19:13;1.40;;;0.40;;
43042;SDS011;28667;50.758;6.096;2023-03-11T09:21:39;2.55;;;0.20;;
43042;SDS011;28667;50.758;6.096;2023-03-11T09:24:05;1.63;;;0.98;;
43042;SDS011;28667;50.758;6.096;2023-03-11T09:26:31;2.13;;;0.60;;
43042;SDS011;28667;50.758;6.096;2023-03-11T09:28:57;1.00;;;0.60;;
43042;SDS011;28667;50.758;6.096;2023-03-11T09:31:23;0.25;;;0.20;;
43042;SDS011;28667;50.758;6.096;2023-03-11T09:33:49;0.10;;;0.10;;
43042;SDS011;28667;50.758;6.096;2023-03-11T09:36:19;2.05;;;0.28;;
43042;SDS011;28667;50.758;6.096;2023-03-11T09:38:45;0.35;;;0.10;;
43042;SDS011;28667;50.758;6.096;2023-03-11T09:51:51;2.80;;;0.35;;
43042;SDS011;28667;50.758;6.096;2023-03-11T09:54:25;7.28;;;0.50;;
43042;SDS011;28667;50.758;6.096;2023-03-11T09:56:54;2.30;;;0.73;;
43042;SDS011;28667;50.758;6.096;2023-03-11T09:59:26;3.92;;;0.63;;
43042;SDS011;28667;50.758;6.096;2023-03-11T10:01:56;0.77;;;0.50;;
43042;SDS011;28667;50.758;6.096;2023-03-11T10:04:24;0.63;;;0.43;;
43042;SDS011;28667;50.758;6.096;2023-03-11T10:06:51;0.05;;;0.03;;
43042;SDS011;28667;50.758;6.096;2023-03-11T10:09:36;1.27;;;0.47;;
43042;SDS011;28667;50.758;6.096;2023-03-11T10:26:02;0.32;;;0.30;;
43042;SDS011;28667;50.758;6.096;2023-03-11T10:28:19;0.28;;;0.20;;
43042;SDS011;28667;50.758;6.096;2023-03-11T10:30:54;1.10;;;0.28;;
43042;SDS011;28667;50.758;6.096;2023-03-11T10:33:35;0.47;;;0.20;;
43042;SDS011;28667;50.758;6.096;2023-03-11T10:36:05;0.50;;;0.25;;
43042;SDS011;28667;50.758;6.096;2023-03-11T10:38:38;0.25;;;0.22;;
43042;SDS011;28667;50.758;6.096;2023-03-11T10:44:24;1.05;;;0.20;;
43042;SDS011;28667;50.758;6.096;2023-03-11T10:46:59;2.53;;;0.80;;
43042;SDS011;28667;50.758;6.096;2023-03-11T10:49:25;0.60;;;0.57;;
43042;SDS011;28667;50.758;6.096;2023-03-11T10:51:52;0.88;;;0.20;;
43042;SDS011;28667;50.758;6.096;2023-03-11T10:54:41;2.42;;;0.63;;
43042;SDS011;28667;50.758;6.096;2023-03-11T10:59:53;0.25;;;0.22;;
43042;SDS011;28667;50.758;6.096;2023-03-11T11:02:36;0.60;;;0.60;;
43042;SDS011;28667;50.758;6.096;2023-03-11T11:05:06;0.77;;;0.38;;
43042;SDS011;28667;50.758;6.096;2023-03-11T11:07:45;0.63;;;0.40;;
43042;SDS011;28667;50.758;6.096;2023-03-11T11:10:25;1.83;;;0.75;;
43042;SDS011;28667;50.758;6.096;2023-03-11T11:17:53;1.30;;;0.50;;
43042;SDS011;28667;50.758;6.096;2023-03-11T11:20:22;0.80;;;0.40;;
43042;SDS011;28667;50.758;6.096;2023-03-11T11:22:55;1.25;;;0.50;;
43042;SDS011;28667;50.758;6.096;2023-03-11T11:25:24;0.50;;;0.50;;
43042;SDS011;28667;50.758;6.096;2023-03-11T11:27:54;3.40;;;0.70;;
43042;SDS011;28667;50.758;6.096;2023-03-11T11:30:21;0.93;;;0.55;;
43042;SDS011;28667;50.758;6.096;2023-03-11T11:32:48;1.77;;;0.60;;
43042;SDS011;28667;50.758;6.096;2023-03-11T11:35:18;1.30;;;0.52;;
43042;SDS011;28667;50.758;6.096;2023-03-11T11:37:45;2.10;;;0.43;;
43042;SDS011;28667;50.758;6.096;2023-03-11T11:42:48;1.67;;;0.60;;
43042;SDS011;28667;50.758;6.096;2023-03-11T11:48:00;4.03;;;0.40;;
43042;SDS011;28667;50.758;6.096;2023-03-11T11:50:35;2.55;;;0.45;;
43042;SDS011;28667;50.758;6.096;2023-03-11T11:55:40;2.40;;;0.52;;
43042;SDS011;28667;50.758;6.096;2023-03-11T11:58:12;1.77;;;0.50;;
43042;SDS011;28667;50.758;6.096;2023-03-11T12:00:43;1.90;;;0.50;;
43042;SDS011;28667;50.758;6.096;2023-03-11T12:06:39;0.47;;;0.30;;
43042;SDS011;28667;50.758;6.096;2023-03-11T12:09:21;0.90;;;0.52;;
43042;SDS011;28667;50.758;6.096;2023-03-11T12:17:07;0.30;;;0.30;;
43042;SDS011;28667;50.758;6.096;2023-03-11T12:19:43;1.88;;;0.38;;
43042;SDS011;28667;50.758;6.096;2023-03-11T12:22:29;1.55;;;0.60;;
43042;SDS011;28667;50.758;6.096;2023-03-11T12:30:52;1.15;;;0.73;;
43042;SDS011;28667;50.758;6.096;2023-03-11T12:38:57;1.20;;;0.55;;
43042;SDS011;28667;50.758;6.096;2023-03-11T12:41:27;2.85;;;0.55;;
43042;SDS011;28667;50.758;6.096;2023-03-11T12:46:23;2.40;;;0.43;;
43042;SDS011;28667;50.758;6.096;2023-03-11T12:49:21;2.85;;;0.63;;
43042;SDS011;28667;50.758;6.096;2023-03-11T12:52:22;0.30;;;0.30;;
43042;SDS011;28667;50.758;6.096;2023-03-11T13:06:15;1.27;;;0.40;;
43042;SDS011;28667;50.758;6.096;2023-03-11T13:08:58;5.85;;;0.47;;
43042;SDS011;28667;50.758;6.096;2023-03-11T13:16:36;2.08;;;0.60;;
43042;SDS011;28667;50.758;6.096;2023-03-11T13:22:38;0.45;;;0.38;;
43042;SDS011;28667;50.758;6.096;2023-03-11T13:25:28;5.60;;;0.45;;
43042;SDS011;28667;50.758;6.096;2023-03-11T13:27:57;1.42;;;1.33;;
43042;SDS011;28667;50.758;6.096;2023-03-11T13:33:22;1.10;;;0.30;;
43042;SDS011;28667;50.758;6.096;2023-03-11T13:35:57;0.25;;;0.25;;
43042;SDS011;28667;50.758;6.096;2023-03-11T13:38:47;0.40;;;0.40;;
43042;SDS011;28667;50.758;6.096;2023-03-11T13:41:33;2.85;;;0.93;;
43042;SDS011;28667;50.758;6.096;2023-03-11T13:44:09;1.10;;;0.55;;
43042;SDS011;28667;50.758;6.096;2023-03-11T13:46:37;0.57;;;0.55;;
43042;SDS011;28667;50.758;6.096;2023-03-11T13:49:05;3.70;;;0.82;;
43042;SDS011;28667;50.758;6.096;2023-03-11T13:51:40;0.75;;;0.47;;
43042;SDS011;28667;50.758;6.096;2023-03-11T13:59:33;0.63;;;0.30;;
43042;SDS011;28667;50.758;6.096;2023-03-11T14:02:00;0.68;;;0.40;;
43042;SDS011;28667;50.758;6.096;2023-03-11T14:04:49;1.52;;;0.40;;
43042;SDS011;28667;50.758;6.096;2023-03-11T14:07:28;1.17;;;0.70;;
43042;SDS011;28667;50.758;6.096;2023-03-11T14:13:13;1.20;;;0.70;;
43042;SDS011;28667;50.758;6.096;2023-03-11T14:15:46;2.17;;;0.63;;
43042;SDS011;28667;50.758;6.096;2023-03-11T14:21:26;0.50;;;0.47;;
43042;SDS011;28667;50.758;6.096;2023-03-11T14:23:52;0.35;;;0.20;;
43042;SDS011;28667;50.758;6.096;2023-03-11T14:26:21;1.58;;;0.50;;
43042;SDS011;28667;50.758;6.096;2023-03-11T14:28:57;2.50;;;0.50;;
43042;SDS011;28667;50.758;6.096;2023-03-11T14:31:35;0.30;;;0.30;;
43042;SDS011;28667;50.758;6.096;2023-03-11T14:34:24;0.35;;;0.32;;
43042;SDS011;28667;50.758;6.096;2023-03-11T14:36:55;0.77;;;0.40;;
43042;SDS011;28667;50.758;6.096;2023-03-11T14:39:27;0.50;;;0.38;;
43042;SDS011;28667;50.758;6.096;2023-03-11T14:44:43;1.45;;;0.57;;
43042;SDS011;28667;50.758;6.096;2023-03-11T14:50:05;1.17;;;0.50;;
43042;SDS011;28667;50.758;6.096;2023-03-11T14:52:41;0.38;;;0.38;;
43042;SDS011;28667;50.758;6.096;2023-03-11T14:55:30;0.55;;;0.30;;
43042;SDS011;28667;50.758;6.096;2023-03-11T14:58:01;1.92;;;0.40;;
43042;SDS011;28667;50.758;6.096;2023-03-11T15:00:42;2.35;;;0.50;;
43042;SDS011;28667;50.758;6.096;2023-03-11T15:08:18;3.05;;;0.50;;
43042;SDS011;28667;50.758;6.096;2023-03-11T15:13:32;2.88;;;0.70;;
43042;SDS011;28667;50.758;6.096;2023-03-11T15:16:01;0.38;;;0.38;;
43042;SDS011;28667;50.758;6.096;2023-03-11T15:18:33;1.85;;;0.43;;
43042;SDS011;28667;50.758;6.096;2023-03-11T15:21:11;0.55;;;0.40;;
43042;SDS011;28667;50.758;6.096;2023-03-11T15:23:43;1.52;;;0.40;;
43042;SDS011;28667;50.758;6.096;2023-03-11T15:26:16;2.20;;;0.63;;
43042;SDS011;28667;50.758;6.096;2023-03-11T15:29:12;4.63;;;0.52;;
43042;SDS011;28667;50.758;6.096;2023-03-11T15:31:40;0.73;;;0.43;;
43042;SDS011;28667;50.758;6.096;2023-03-11T15:36:43;0.40;;;0.40;;
43042;SDS011;28667;50.758;6.096;2023-03-11T15:42:30;1.35;;;0.40;;
43042;SDS011;28667;50.758;6.096;2023-03-11T15:44:36;0.45;;;0.40;;
43042;SDS011;28667;50.758;6.096;2023-03-11T15:47:21;0.30;;;0.30;;
43042;SDS011;28667;50.758;6.096;2023-03-11T15:49:47;1.30;;;0.70;;
43042;SDS011;28667;50.758;6.096;2023-03-11T15:52:14;0.57;;;0.45;;
43042;SDS011;28667;50.758;6.096;2023-03-11T15:54:41;0.68;;;0.50;;
43042;SDS011;28667;50.758;6.096;2023-03-11T15:57:08;1.55;;;0.50;;
43042;SDS011;28667;50.758;6.096;2023-03-11T15:59:39;2.70;;;0.50;;
43042;SDS011;28667;50.758;6.096;2023-03-11T16:02:11;0.50;;;0.50;;
43042;SDS011;28667;50.758;6.096;2023-03-11T16:04:45;0.70;;;0.50;;
43042;SDS011;28667;50.758;6.096;2023-03-11T16:07:11;1.05;;;0.68;;
43042;SDS011;28667;50.758;6.096;2023-03-11T16:09:37;1.65;;;0.47;;
43042;SDS011;28667;50.758;6.096;2023-03-11T16:12:08;2.10;;;0.80;;
43042;SDS011;28667;50.758;6.096;2023-03-11T16:14:39;0.47;;;0.40;;
43042;SDS011;28667;50.758;6.096;2023-03-11T16:17:05;0.65;;;0.47;;
43042;SDS011;28667;50.758;6.096;2023-03-11T16:19:30;0.52;;;0.50;;
43042;SDS011;28667;50.758;6.096;2023-03-11T16:21:56;2.95;;;0.57;;
43042;SDS011;28667;50.758;6.096;2023-03-11T16:24:22;2.03;;;0.57;;
43042;SDS011;28667;50.758;6.096;2023-03-11T16:26:49;1.88;;;0.88;;
43042;SDS011;28667;50.758;6.096;2023-03-11T16:29:17;2.83;;;0.82;;
43042;SDS011;28667;50.758;6.096;2023-03-11T16:31:43;0.85;;;0.32;;
43042;SDS011;28667;50.758;6.096;2023-03-11T16:34:09;2.30;;;0.50;;
43042;SDS011;28667;50.758;6.096;2023-03-11T16:36:35;1.60;;;0.30;;
43042;SDS011;28667;50.758;6.096;2023-03-11T16:39:00;0.85;;;0.50;;
43042;SDS011;28667;50.758;6.096;2023-03-11T16:41:26;1.73;;;0.70;;
43042;SDS011;28667;50.758;6.096;2023-03-11T16:43:52;1.05;;;0.57;;
43042;SDS011;28667;50.758;6.096;2023-03-11T16:46:18;0.50;;;0.50;;
43042;SDS011;28667;50.758;6.096;2023-03-11T16:48:44;1.02;;;0.50;;
43042;SDS011;28667;50.758;6.096;2023-03-11T16:51:10;0.82;;;0.57;;
43042;SDS011;28667;50.758;6.096;2023-03-11T16:53:36;0.63;;;0.55;;
43042;SDS011;28667;50.758;6.096;2023-03-11T16:56:03;0.82;;;0.63;;
43042;SDS011;28667;50.758;6.096;2023-03-11T16:58:29;2.17;;;0.40;;
43042;SDS011;28667;50.758;6.096;2023-03-11T17:00:55;3.88;;;0.93;;
43042;SDS011;28667;50.758;6.096;2023-03-11T17:03:20;2.05;;;0.68;;
43042;SDS011;28667;50.758;6.096;2023-03-11T17:05:46;0.80;;;0.63;;
43042;SDS011;28667;50.758;6.096;2023-03-11T17:08:12;1.27;;;0.80;;
43042;SDS011;28667;50.758;6.096;2023-03-11T17:10:40;1.00;;;0.73;;